Time;durP1;ratioP1;P1;durP2;ratioP2;P2;SDS_P1;SDS_P2;PMS_P1;PMS_P2;Temp;Humidity;BMP_temperature;BMP_pressure;BME280_temperature;BME280_humidity;BME280_pressure;Samples;Min_cycle;Max_cycle;Signal;HPM_P1;HPM_P2
2021/06/13 00:01:22;;;;;;;4.97;1.40;;;;;;;13.78;60.15;101065.47;4931122;28;20507;-71
2021/06/13 00:03:48;;;;;;;5.32;1.33;;;;;;;13.77;60.06;101077.00;4962624;28;20046;-72
2021/06/13 00:06:13;;;;;;;6.60;1.70;;;;;;;13.71;60.56;101080.59;4946381;28;20042;-71
2021/06/13 00:08:39;;;;;;;6.40;1.88;;;;;;;13.65;60.60;101085.06;4928693;28;20038;-72
2021/06/13 00:11:05;;;;;;;6.22;1.50;;;;;;;13.59;60.74;101086.88;4964390;28;20380;-71
2021/06/13 00:13:30;;;;;;;4.47;1.45;;;;;;;13.52;60.88;101090.50;4961250;28;20555;-71
2021/06/13 00:15:56;;;;;;;5.15;1.73;;;;;;;13.49;61.06;101103.81;4964355;28;20051;-71
2021/06/13 00:18:21;;;;;;;6.63;1.92;;;;;;;13.43;61.36;101095.88;4961556;28;20028;-71
2021/06/13 00:20:49;;;;;;;5.05;1.77;;;;;;;13.41;61.50;101104.75;4964144;28;20552;-71
2021/06/13 00:23:15;;;;;;;5.88;1.63;;;;;;;13.37;62.27;101103.91;4961979;28;20488;-71
2021/06/13 00:25:40;;;;;;;6.22;1.83;;;;;;;13.37;62.25;101101.25;4963009;28;20054;-71
2021/06/13 00:28:06;;;;;;;6.10;1.38;;;;;;;13.41;62.17;101113.56;4962409;28;20070;-71
2021/06/13 00:30:31;;;;;;;8.40;1.75;;;;;;;13.40;62.17;101110.94;4962911;28;20031;-71
2021/06/13 00:32:57;;;;;;;11.68;2.05;;;;;;;13.41;62.24;101108.25;4962858;28;20411;-71
2021/06/13 00:35:23;;;;;;;12.00;2.17;;;;;;;13.36;62.74;101104.78;4961168;28;20491;-72
2021/06/13 00:37:50;;;;;;;4.85;1.90;;;;;;;13.35;62.24;101116.28;4963456;28;20956;-71
2021/06/13 00:40:18;;;;;;;6.03;2.05;;;;;;;13.31;62.58;101122.50;4961639;28;20491;-71
2021/06/13 00:42:44;;;;;;;9.68;2.08;;;;;;;13.25;63.19;101120.72;4964436;28;20070;-71
2021/06/13 00:45:11;;;;;;;7.28;1.70;;;;;;;13.20;63.35;101125.19;4960521;28;20031;-71
2021/06/13 00:47:36;;;;;;;6.90;1.70;;;;;;;13.13;63.26;101129.66;4964037;28;20039;-71
2021/06/13 00:50:12;;;;;;;5.43;2.00;;;;;;;13.03;63.79;101122.66;4961467;28;20046;-71
2021/06/13 00:52:38;;;;;;;5.95;2.08;;;;;;;12.92;64.07;101120.09;4949881;28;20126;-71
2021/06/13 00:55:04;;;;;;;9.63;2.35;;;;;;;12.87;64.40;101127.19;4967682;28;20155;-71
2021/06/13 00:57:30;;;;;;;7.47;2.30;;;;;;;12.78;64.79;101131.66;4966417;28;20032;-71
2021/06/13 00:59:56;;;;;;;7.50;2.13;;;;;;;12.68;65.41;101136.09;4968927;28;20050;-71
2021/06/13 01:02:22;;;;;;;12.75;2.30;;;;;;;12.63;65.90;101132.63;4941910;29;20115;-72
2021/06/13 01:04:49;;;;;;;13.60;2.60;;;;;;;12.59;66.03;101142.34;4960349;28;20045;-71
2021/06/13 01:07:19;;;;;;;7.13;2.40;;;;;;;12.60;65.81;101138.81;4960575;28;20495;-71
2021/06/13 01:09:52;;;;;;;8.55;2.20;;;;;;;12.54;66.38;101132.66;4929582;28;20507;-71
2021/06/13 01:12:27;;;;;;;7.72;2.53;;;;;;;12.53;66.79;101137.09;4944381;28;20439;-71
2021/06/13 01:15:11;;;;;;;5.53;2.00;;;;;;;12.52;66.87;101143.25;4955657;28;20039;-70
2021/06/13 01:17:54;;;;;;;10.60;3.17;;;;;;;12.50;66.69;101143.28;4961097;28;20031;-71
2021/06/13 01:20:32;;;;;;;8.65;3.15;;;;;;;12.56;66.33;101141.50;4927680;28;20035;-71
2021/06/13 01:23:09;;;;;;;7.45;2.10;;;;;;;12.50;66.25;101148.56;4940323;28;20034;-71
2021/06/13 01:26:09;;;;;;;7.60;2.80;;;;;;;12.49;66.31;101156.50;4945082;28;20046;-72
2021/06/13 01:28:57;;;;;;;6.63;2.17;;;;;;;12.44;67.03;101147.69;4929375;28;20133;-71
2021/06/13 01:31:28;;;;;;;8.82;2.60;;;;;;;12.44;66.98;101147.69;4962315;28;20070;-71
2021/06/13 01:33:57;;;;;;;8.05;2.13;;;;;;;12.45;67.13;101154.78;4943868;28;20039;-71
2021/06/13 01:36:24;;;;;;;8.65;2.42;;;;;;;12.39;66.87;101145.09;4963663;28;20495;-72
2021/06/13 01:38:51;;;;;;;10.00;2.67;;;;;;;12.33;67.71;101157.47;4943427;28;20035;-71
2021/06/13 01:41:22;;;;;;;9.35;2.85;;;;;;;12.26;67.88;101165.44;4963341;28;20023;-71
2021/06/13 01:43:53;;;;;;;6.07;2.28;;;;;;;12.20;68.00;101152.19;4961989;28;20070;-71
2021/06/13 01:46:19;;;;;;;7.82;2.58;;;;;;;12.13;68.50;101145.19;4944797;28;20039;-71
2021/06/13 01:48:46;;;;;;;8.13;2.47;;;;;;;12.09;69.29;101153.13;4934144;28;20046;-71
2021/06/13 01:51:11;;;;;;;8.68;2.75;;;;;;;12.05;69.83;101153.13;4946873;29;20032;-71
2021/06/13 01:53:43;;;;;;;14.00;2.90;;;;;;;11.99;70.21;101162.84;4927356;29;20119;-71
2021/06/13 01:56:15;;;;;;;4.82;2.53;;;;;;;11.96;69.94;101157.56;4964655;28;20058;-71
2021/06/13 01:58:46;;;;;;;8.38;2.92;;;;;;;11.92;70.35;101155.78;4947892;28;20502;-71
2021/06/13 02:01:35;;;;;;;7.75;2.47;;;;;;;11.92;69.73;101163.72;4963138;28;20126;-71
2021/06/13 02:04:03;;;;;;;6.03;2.55;;;;;;;11.93;69.55;101169.03;4947287;28;20072;-71
2021/06/13 02:06:58;;;;;;;6.32;2.53;;;;;;;11.88;69.33;101175.19;4964398;28;20055;-71
2021/06/13 02:09:29;;;;;;;9.57;2.78;;;;;;;11.92;69.74;101179.59;4942984;28;20071;-71
2021/06/13 02:12:01;;;;;;;8.15;2.92;;;;;;;11.92;69.30;101176.94;4945870;28;20037;-71
2021/06/13 02:14:30;;;;;;;12.55;3.80;;;;;;;11.83;69.18;101183.97;4947205;28;20495;-71
2021/06/13 02:17:02;;;;;;;9.73;3.00;;;;;;;11.79;69.09;101197.22;4963874;28;20110;-71
2021/06/13 02:19:30;;;;;;;6.82;2.83;;;;;;;11.78;68.93;101201.59;4927035;29;20487;-71
2021/06/13 02:22:03;;;;;;;9.75;2.90;;;;;;;11.77;69.51;101196.34;4961361;28;20766;-71
2021/06/13 02:24:34;;;;;;;8.45;2.55;;;;;;;11.67;69.37;101216.59;4964769;28;20035;-71
2021/06/13 02:27:00;;;;;;;9.15;3.63;;;;;;;11.71;69.29;101213.09;4965188;28;20031;-71
2021/06/13 02:29:28;;;;;;;10.65;3.08;;;;;;;11.69;68.71;101217.50;4946998;28;20102;-71
2021/06/13 02:31:55;;;;;;;8.45;2.63;;;;;;;11.65;68.71;101222.78;4948791;28;20031;-73
2021/06/13 02:34:27;;;;;;;11.52;2.97;;;;;;;11.66;68.75;101224.53;4962510;28;20039;-73
2021/06/13 02:36:58;;;;;;;7.32;2.90;;;;;;;11.58;69.18;101232.44;4948186;28;20030;-73
2021/06/13 02:39:24;;;;;;;10.90;2.97;;;;;;;11.57;68.58;101231.56;4964748;28;20027;-74
2021/06/13 02:41:52;;;;;;;11.55;3.17;;;;;;;11.53;68.80;101236.88;4946488;28;20130;-74
2021/06/13 02:44:19;;;;;;;7.60;2.90;;;;;;;11.52;68.87;101232.44;4947787;28;20478;-73
2021/06/13 02:46:46;;;;;;;10.90;2.50;;;;;;;11.53;68.37;101239.53;4942501;29;20161;-73
2021/06/13 02:49:12;;;;;;;11.82;2.97;;;;;;;11.53;68.97;101244.81;4966237;28;20031;-74
2021/06/13 02:51:54;;;;;;;7.30;2.55;;;;;;;11.46;68.65;101238.63;4943189;28;20376;-74
2021/06/13 02:54:20;;;;;;;8.05;2.95;;;;;;;11.52;68.74;101240.38;4963320;28;20035;-74
2021/06/13 02:56:59;;;;;;;11.65;3.50;;;;;;;11.55;68.36;101250.97;4965241;28;20034;-73
2021/06/13 02:59:47;;;;;;;7.22;3.50;;;;;;;11.55;68.76;101261.53;4946836;28;20514;-73
2021/06/13 03:02:15;;;;;;;11.65;2.90;;;;;;;11.61;68.89;101261.56;4942493;28;20063;-74
2021/06/13 03:04:43;;;;;;;10.15;2.88;;;;;;;11.60;68.47;101263.28;4947310;28;20117;-74
2021/06/13 03:07:14;;;;;;;7.82;3.05;;;;;;;11.57;68.13;101273.00;4946623;28;20041;-73
2021/06/13 03:09:41;;;;;;;8.77;2.90;;;;;;;11.58;67.73;101280.03;4945820;28;20499;-74
2021/06/13 03:12:13;;;;;;;5.32;2.65;;;;;;;11.59;68.62;101281.81;4960901;28;20042;-73
2021/06/13 03:14:41;;;;;;;7.32;2.83;;;;;;;11.58;68.46;101275.66;4958460;28;20039;-74
2021/06/13 03:17:09;;;;;;;8.07;2.70;;;;;;;11.65;68.09;101281.81;4947619;28;20117;-73
2021/06/13 03:19:38;;;;;;;8.50;3.42;;;;;;;11.75;67.61;101290.66;4963524;28;20046;-71
2021/06/13 03:22:05;;;;;;;8.05;2.55;;;;;;;11.77;67.57;101278.31;4963559;28;20372;-70
2021/06/13 03:24:34;;;;;;;8.05;3.22;;;;;;;11.76;67.70;101285.38;4964183;28;20027;-71
2021/06/13 03:27:01;;;;;;;10.45;3.38;;;;;;;11.77;67.48;101286.25;4941631;29;20032;-71
2021/06/13 03:29:27;;;;;;;9.05;2.95;;;;;;;11.80;67.16;101283.59;4929229;28;20617;-72
2021/06/13 03:31:55;;;;;;;7.82;2.90;;;;;;;11.88;66.68;101287.16;4947930;28;20038;-71
2021/06/13 03:34:21;;;;;;;7.78;2.63;;;;;;;12.02;66.73;101289.81;4962183;28;20039;-71
2021/06/13 03:36:48;;;;;;;7.68;3.25;;;;;;;12.14;65.97;101292.47;4964370;28;20030;-72
2021/06/13 03:39:15;;;;;;;8.50;2.92;;;;;;;12.25;66.24;101306.56;4963453;28;20059;-71
2021/06/13 03:41:41;;;;;;;9.40;2.70;;;;;;;12.38;65.15;101306.56;4946095;28;20710;-71
2021/06/13 03:44:08;;;;;;;11.13;3.00;;;;;;;12.46;64.96;101295.06;4960984;28;20035;-71
2021/06/13 03:46:36;;;;;;;6.80;2.55;;;;;;;12.54;64.46;101297.69;4961472;28;20034;-71
2021/06/13 03:49:02;;;;;;;7.80;3.03;;;;;;;12.59;63.75;101306.53;4961838;28;20035;-72
2021/06/13 03:51:28;;;;;;;13.73;3.13;;;;;;;12.59;63.60;101311.81;4965160;28;20507;-73
2021/06/13 03:53:59;;;;;;;8.35;2.70;;;;;;;12.67;63.99;101309.16;4961427;28;20051;-74
2021/06/13 03:56:29;;;;;;;7.70;2.40;;;;;;;12.71;63.59;101314.44;4963752;28;20038;-74
2021/06/13 03:58:55;;;;;;;9.13;2.83;;;;;;;12.81;63.68;101311.75;4963558;28;20472;-74
2021/06/13 04:01:22;;;;;;;8.77;2.63;;;;;;;12.87;63.15;101322.34;4962841;28;20038;-73
2021/06/13 04:03:52;;;;;;;5.75;2.20;;;;;;;12.96;62.96;101322.31;4963926;28;20043;-74
2021/06/13 04:06:22;;;;;;;8.65;2.53;;;;;;;13.05;62.70;101324.94;4961007;28;20252;-73
2021/06/13 04:08:49;;;;;;;10.52;3.15;;;;;;;13.07;62.67;101328.47;4958236;28;20050;-71
2021/06/13 04:11:17;;;;;;;8.00;2.42;;;;;;;13.11;62.43;101338.16;4963892;28;20038;-71
2021/06/13 04:13:44;;;;;;;9.05;3.08;;;;;;;13.20;62.47;101336.34;4962603;28;20118;-71
2021/06/13 04:16:10;;;;;;;7.78;2.65;;;;;;;13.26;61.90;101346.97;4962479;28;20060;-71
2021/06/13 04:18:37;;;;;;;11.07;3.20;;;;;;;13.17;62.16;101334.59;4963358;28;20037;-71
2021/06/13 04:21:06;;;;;;;9.63;2.95;;;;;;;13.06;62.56;101339.06;4962003;28;20546;-72
2021/06/13 04:23:32;;;;;;;10.10;3.15;;;;;;;12.84;63.95;101360.34;4924955;29;20095;-71
2021/06/13 04:25:59;;;;;;;7.82;3.08;;;;;;;12.74;64.04;101347.13;4964197;28;20034;-71
2021/06/13 04:28:25;;;;;;;8.60;2.83;;;;;;;12.69;65.21;101340.03;4961167;28;20046;-71
2021/06/13 04:31:01;;;;;;;9.27;3.75;;;;;;;12.68;64.63;101338.28;4946557;28;20031;-71
2021/06/13 04:33:26;;;;;;;10.48;3.40;;;;;;;12.68;65.72;101340.03;4963097;28;20039;-71
2021/06/13 04:35:51;;;;;;;10.48;3.90;;;;;;;12.64;65.82;101351.53;4961906;28;20165;-71
2021/06/13 04:38:17;;;;;;;8.50;3.58;;;;;;;12.62;66.49;101343.56;4963501;28;20073;-71
2021/06/13 04:40:42;;;;;;;7.82;3.65;;;;;;;12.66;66.30;101352.44;4961646;28;20076;-70
2021/06/13 04:43:07;;;;;;;9.82;3.30;;;;;;;12.61;66.45;101368.31;4963885;28;20042;-71
2021/06/13 04:45:33;;;;;;;9.98;3.72;;;;;;;12.62;66.75;101353.31;4960656;28;20043;-71
2021/06/13 04:48:00;;;;;;;8.60;3.35;;;;;;;12.64;66.60;101363.00;4964248;28;20049;-71
2021/06/13 04:50:25;;;;;;;11.50;3.50;;;;;;;12.69;66.31;101366.53;4960783;28;20042;-71
2021/06/13 04:52:52;;;;;;;11.07;3.40;;;;;;;12.76;66.00;101345.31;4963957;28;20506;-71
2021/06/13 04:55:30;;;;;;;8.63;3.15;;;;;;;12.76;65.71;101366.50;4959641;28;20065;-71
2021/06/13 04:58:17;;;;;;;10.70;3.10;;;;;;;12.79;65.02;101358.59;4963449;28;20031;-71
2021/06/13 05:00:42;;;;;;;8.20;3.00;;;;;;;12.82;64.91;101359.44;4929726;28;20121;-71
2021/06/13 05:03:08;;;;;;;12.13;3.70;;;;;;;12.98;64.60;101359.41;4962347;28;20503;-71
2021/06/13 05:05:33;;;;;;;15.43;3.40;;;;;;;12.98;65.01;101368.25;4929998;29;20039;-71
2021/06/13 05:07:58;;;;;;;10.85;3.30;;;;;;;12.96;64.17;101369.13;4960851;28;20042;-71
2021/06/13 05:10:24;;;;;;;13.25;3.95;;;;;;;13.06;65.09;101369.09;4963399;28;20069;-71
2021/06/13 05:12:52;;;;;;;12.82;3.40;;;;;;;13.08;63.63;101382.34;4961117;28;20039;-71
2021/06/13 05:15:20;;;;;;;11.90;2.90;;;;;;;13.05;63.52;101364.69;4963783;28;20547;-71
2021/06/13 05:17:46;;;;;;;12.05;3.15;;;;;;;13.13;64.35;101380.56;4954779;28;20031;-71
2021/06/13 05:20:11;;;;;;;10.48;3.90;;;;;;;13.19;64.65;101388.50;4963389;28;20125;-71
2021/06/13 05:23:04;;;;;;;9.95;3.80;;;;;;;13.18;63.43;101385.84;4964704;28;20062;-71
2021/06/13 05:25:35;;;;;;;8.00;3.38;;;;;;;13.05;63.25;101385.91;4964830;28;20032;-71
2021/06/13 05:28:02;;;;;;;7.28;2.88;;;;;;;13.15;63.09;101406.19;4965781;28;20043;-71
2021/06/13 05:30:29;;;;;;;8.90;3.03;;;;;;;13.19;64.21;101395.56;4966356;28;20038;-72
2021/06/13 05:32:54;;;;;;;12.32;3.65;;;;;;;13.32;63.60;101399.97;4964959;28;20045;-71
2021/06/13 05:35:21;;;;;;;12.02;3.10;;;;;;;13.33;62.87;101399.06;4966626;28;20039;-71
2021/06/13 05:37:47;;;;;;;10.77;3.72;;;;;;;13.33;62.80;101392.00;4943658;29;20036;-71
2021/06/13 05:40:14;;;;;;;10.52;3.83;;;;;;;13.43;63.29;101398.16;4967640;28;20093;-71
2021/06/13 05:42:40;;;;;;;8.65;2.63;;;;;;;13.53;62.90;101402.53;4963901;28;20503;-71
2021/06/13 05:45:07;;;;;;;8.48;3.00;;;;;;;13.64;62.43;101391.00;4963718;28;20504;-71
2021/06/13 05:47:32;;;;;;;10.65;3.03;;;;;;;13.69;62.23;101397.16;4966315;28;20123;-71
2021/06/13 05:49:58;;;;;;;9.57;3.28;;;;;;;13.74;61.57;101406.84;4964962;28;20118;-71
2021/06/13 05:52:23;;;;;;;10.27;3.20;;;;;;;13.89;60.97;101395.28;4965700;28;20031;-71
2021/06/13 05:54:48;;;;;;;11.93;2.40;;;;;;;14.17;60.11;101400.38;4965042;28;20031;-71
2021/06/13 05:57:14;;;;;;;7.80;2.83;;;;;;;14.35;59.71;101407.34;4965231;28;20122;-71
2021/06/13 05:59:39;;;;;;;12.63;3.50;;;;;;;14.32;59.79;101399.41;4965628;28;20039;-71
2021/06/13 06:02:04;;;;;;;9.75;3.38;;;;;;;14.40;59.09;101411.72;4964776;28;20205;-72
2021/06/13 06:04:30;;;;;;;12.43;3.40;;;;;;;14.23;59.19;101405.69;4965708;28;20106;-72
2021/06/13 06:06:55;;;;;;;13.77;3.20;;;;;;;14.41;59.16;101417.94;4964198;28;20066;-71
2021/06/13 06:09:20;;;;;;;12.68;3.20;;;;;;;14.53;58.69;101430.25;4949130;28;20101;-71
2021/06/13 06:11:46;;;;;;;10.88;3.33;;;;;;;14.63;58.95;101424.84;4963731;28;20047;-71
2021/06/13 06:14:11;;;;;;;11.68;3.35;;;;;;;14.79;58.09;101425.59;4966447;28;20163;-71
2021/06/13 06:16:37;;;;;;;14.30;4.05;;;;;;;14.77;58.21;101435.34;4963184;28;20032;-71
2021/06/13 06:19:03;;;;;;;16.85;3.92;;;;;;;14.86;56.91;101437.94;4949433;28;20499;-71
2021/06/13 06:21:28;;;;;;;9.48;3.30;;;;;;;14.78;56.45;101434.47;4963533;28;20054;-72
2021/06/13 06:23:53;;;;;;;8.10;2.90;;;;;;;14.76;57.28;101430.94;4966145;28;20039;-71
2021/06/13 06:26:19;;;;;;;8.48;2.72;;;;;;;14.77;56.17;101430.03;4963549;28;20130;-72
2021/06/13 06:28:45;;;;;;;9.90;3.15;;;;;;;14.59;56.20;101427.53;4965347;28;20066;-72
2021/06/13 06:31:11;;;;;;;9.40;3.00;;;;;;;14.95;56.44;101436.09;4947076;28;20023;-71
2021/06/13 06:33:36;;;;;;;9.05;2.95;;;;;;;15.01;56.12;101426.28;4963770;28;20034;-71
2021/06/13 06:36:03;;;;;;;8.73;2.83;;;;;;;15.01;56.00;101425.38;4964752;28;20404;-71
2021/06/13 06:38:28;;;;;;;10.30;3.05;;;;;;;15.11;54.90;101443.00;4964126;28;20034;-71
2021/06/13 06:40:54;;;;;;;8.90;2.22;;;;;;;14.98;55.68;101434.25;4965407;28;20129;-71
2021/06/13 06:43:20;;;;;;;10.38;3.38;;;;;;;14.97;55.41;101428.97;4946207;28;20031;-71
2021/06/13 06:45:45;;;;;;;9.52;2.70;;;;;;;15.16;56.15;101433.19;4948052;28;20045;-71
2021/06/13 06:48:10;;;;;;;8.45;2.80;;;;;;;15.34;55.52;101438.31;4962858;28;20039;-71
2021/06/13 06:50:36;;;;;;;9.48;2.85;;;;;;;15.24;54.83;101436.66;4966145;28;20050;-71
2021/06/13 06:53:01;;;;;;;8.68;2.33;;;;;;;15.29;55.48;101436.59;4945338;28;20031;-71
2021/06/13 06:55:26;;;;;;;6.85;2.45;;;;;;;15.17;55.64;101444.72;4965697;28;20042;-71
2021/06/13 06:57:52;;;;;;;9.23;2.85;;;;;;;15.21;55.13;101436.69;4962758;28;20098;-71
2021/06/13 07:00:18;;;;;;;6.32;2.88;;;;;;;15.40;54.59;101444.47;4965453;28;20038;-71
2021/06/13 07:02:44;;;;;;;6.90;2.65;;;;;;;15.71;53.72;101448.53;4963388;28;20038;-72
2021/06/13 07:05:10;;;;;;;9.15;2.20;;;;;;;15.77;51.83;101442.25;4961205;28;20035;-71
2021/06/13 07:07:36;;;;;;;8.23;2.53;;;;;;;15.87;52.80;101430.59;4964321;28;20068;-71
2021/06/13 07:10:03;;;;;;;12.05;2.17;;;;;;;15.85;51.05;101432.41;4964153;28;20501;-71
2021/06/13 07:12:29;;;;;;;8.05;2.53;;;;;;;15.60;51.62;101447.78;4963572;28;20045;-71
2021/06/13 07:14:54;;;;;;;8.05;2.35;;;;;;;15.44;51.44;101448.88;4964423;28;20050;-72
2021/06/13 07:17:20;;;;;;;11.05;2.85;;;;;;;15.22;51.96;101459.75;4963026;28;20086;-71
2021/06/13 07:19:45;;;;;;;7.10;2.70;;;;;;;15.28;52.81;101462.34;4965091;28;20066;-72
2021/06/13 07:22:10;;;;;;;7.50;2.10;;;;;;;15.52;52.59;101454.97;4962512;28;20114;-71
2021/06/13 07:24:36;;;;;;;7.85;2.28;;;;;;;15.80;52.23;101454.66;4965101;28;20097;-71
2021/06/13 07:27:01;;;;;;;9.45;3.03;;;;;;;15.87;52.28;101462.53;4961449;28;20464;-71
2021/06/13 07:29:26;;;;;;;8.80;2.72;;;;;;;15.90;51.90;101461.59;4961915;28;20035;-71
2021/06/13 07:31:52;;;;;;;14.18;3.70;;;;;;;16.12;51.11;101456.88;4965101;28;20058;-71
2021/06/13 07:34:17;;;;;;;7.43;2.40;;;;;;;16.18;51.05;101462.13;4961927;28;20031;-71
2021/06/13 07:36:42;;;;;;;12.27;3.33;;;;;;;16.20;50.66;101463.84;4947478;28;20034;-71
2021/06/13 07:39:08;;;;;;;6.82;2.40;;;;;;;16.21;50.61;101462.94;4962660;28;20518;-71
2021/06/13 07:41:33;;;;;;;9.95;2.50;;;;;;;16.08;51.21;101466.69;4964119;28;20038;-71
2021/06/13 07:43:59;;;;;;;10.07;3.60;;;;;;;16.06;50.21;101468.50;4962555;28;20047;-71
2021/06/13 07:46:24;;;;;;;8.68;2.08;;;;;;;15.72;48.61;101476.06;4963157;28;20035;-72
2021/06/13 07:48:49;;;;;;;7.35;2.22;;;;;;;15.42;50.77;101466.63;4963356;28;20038;-71
2021/06/13 07:51:15;;;;;;;10.30;2.83;;;;;;;15.30;51.03;101487.13;4945857;28;20679;-71
2021/06/13 07:53:43;;;;;;;7.57;2.03;;;;;;;15.15;52.05;101476.66;4963793;28;20525;-71
2021/06/13 07:56:13;;;;;;;7.40;2.25;;;;;;;15.05;52.33;101485.63;4961769;28;20566;-71
2021/06/13 07:58:38;;;;;;;7.22;2.30;;;;;;;14.93;52.53;101483.06;4964939;28;20502;-71
2021/06/13 08:01:03;;;;;;;8.73;2.70;;;;;;;14.93;52.59;101491.91;4961468;28;20097;-71
2021/06/13 08:03:29;;;;;;;6.63;2.03;;;;;;;14.94;52.27;101476.88;4947361;28;20085;-71
2021/06/13 08:05:54;;;;;;;7.13;2.20;;;;;;;15.03;52.59;101482.06;4961514;28;20411;-71
2021/06/13 08:08:19;;;;;;;10.63;2.35;;;;;;;15.29;51.58;101485.34;4964044;28;20411;-71
2021/06/13 08:10:45;;;;;;;6.22;2.25;;;;;;;15.45;51.07;101493.19;4962255;28;20499;-71
2021/06/13 08:13:10;;;;;;;6.85;2.15;;;;;;;15.66;51.33;101490.25;4963581;28;20509;-71
2021/06/13 08:15:36;;;;;;;10.75;3.88;;;;;;;15.87;51.19;101498.94;4962263;28;20042;-71
2021/06/13 08:18:01;;;;;;;6.47;2.00;;;;;;;16.18;50.06;101484.28;4963110;28;20030;-71
2021/06/13 08:20:28;;;;;;;8.27;2.05;;;;;;;16.36;49.42;101487.59;4962897;28;20031;-71
2021/06/13 08:22:53;;;;;;;3.92;1.70;;;;;;;16.50;48.26;101496.25;4962409;28;20046;-71
2021/06/13 08:25:19;;;;;;;6.28;1.95;;;;;;;16.55;48.30;101493.53;4963219;28;20097;-71
2021/06/13 08:27:44;;;;;;;5.18;1.77;;;;;;;16.72;47.83;101495.94;4961779;28;20045;-72
2021/06/13 08:30:13;;;;;;;7.55;1.98;;;;;;;16.91;47.25;101494.75;4964051;28;20042;-71
2021/06/13 08:32:39;;;;;;;7.97;1.98;;;;;;;16.89;47.10;101477.91;4960949;28;20038;-71
2021/06/13 08:35:06;;;;;;;6.55;2.10;;;;;;;16.67;46.51;101500.47;4960746;28;20031;-71
2021/06/13 08:37:32;;;;;;;10.55;2.22;;;;;;;16.28;46.70;101484.19;4963924;28;20059;-71
2021/06/13 08:39:57;;;;;;;7.47;2.35;;;;;;;16.12;47.56;101492.38;4961731;28;20038;-71
2021/06/13 08:42:23;;;;;;;5.47;2.03;;;;;;;15.96;48.54;101498.81;4963333;28;20046;-70
2021/06/13 08:44:49;;;;;;;8.93;2.50;;;;;;;15.67;49.15;101497.38;4961733;28;20057;-71
2021/06/13 08:47:17;;;;;;;5.15;1.90;;;;;;;15.49;50.08;101506.44;4962698;28;20109;-71
2021/06/13 08:49:43;;;;;;;10.07;2.92;;;;;;;15.52;50.71;101493.09;4963109;28;20679;-71
2021/06/13 08:52:10;;;;;;;7.68;2.40;;;;;;;15.74;49.37;101506.19;4961861;28;20074;-72
2021/06/13 08:54:35;;;;;;;7.10;2.15;;;;;;;15.80;49.71;101502.56;4963283;28;20101;-72
2021/06/13 08:57:01;;;;;;;8.93;2.28;;;;;;;16.04;48.75;101506.72;4963753;28;20039;-71
2021/06/13 08:59:26;;;;;;;7.72;2.00;;;;;;;16.36;48.63;101507.13;4968129;28;20026;-71
2021/06/13 09:01:52;;;;;;;6.78;2.10;;;;;;;16.80;47.06;101504.72;4964486;28;20062;-71
2021/06/13 09:04:17;;;;;;;7.00;2.00;;;;;;;17.13;46.22;101505.03;4967728;28;20035;-72
2021/06/13 09:06:42;;;;;;;5.05;1.52;;;;;;;16.98;44.44;101507.09;4964861;28;20066;-71
2021/06/13 09:09:18;;;;;;;6.38;1.95;;;;;;;17.15;44.94;101508.56;4967400;28;20047;-71
2021/06/13 09:11:57;;;;;;;7.22;2.20;;;;;;;17.25;44.83;101507.50;4949357;28;20038;-71
2021/06/13 09:14:22;;;;;;;5.38;1.88;;;;;;;17.27;45.22;101508.34;4960880;28;20071;-72
2021/06/13 09:16:48;;;;;;;8.20;1.92;;;;;;;17.11;44.40;101501.50;4967387;28;20051;-71
2021/06/13 09:19:13;;;;;;;6.28;2.40;;;;;;;16.89;45.12;101520.56;4965055;28;20028;-71
2021/06/13 09:21:39;;;;;;;7.22;2.00;;;;;;;16.77;45.56;101526.97;4964594;28;20046;-71
2021/06/13 09:24:24;;;;;;;7.43;2.00;;;;;;;16.82;45.39;101527.78;4966485;28;20035;-71
2021/06/13 09:26:51;;;;;;;7.15;1.88;;;;;;;16.84;43.73;101525.97;4960854;28;20114;-71
2021/06/13 09:29:17;;;;;;;5.72;1.75;;;;;;;16.71;43.61;101526.16;4946909;28;20082;-71
2021/06/13 09:31:43;;;;;;;6.28;1.73;;;;;;;16.68;44.54;101529.75;4966631;28;20559;-71
2021/06/13 09:34:17;;;;;;;7.10;2.00;;;;;;;16.81;46.04;101528.69;4965126;28;20049;-71
2021/06/13 09:36:43;;;;;;;9.13;2.67;;;;;;;16.86;45.46;101548.16;4965037;28;20027;-71
2021/06/13 09:39:11;;;;;;;6.70;2.10;;;;;;;17.07;45.12;101540.72;4966904;28;20129;-71
2021/06/13 09:41:40;;;;;;;7.07;2.08;;;;;;;17.09;44.83;101536.22;4963958;28;20510;-72
2021/06/13 09:44:08;;;;;;;7.93;2.00;;;;;;;17.05;45.26;101548.72;4964227;28;20039;-71
2021/06/13 09:46:39;;;;;;;4.70;1.83;;;;;;;16.93;44.55;101561.41;4966111;28;20034;-71
2021/06/13 09:49:07;;;;;;;6.43;2.17;;;;;;;16.82;45.77;101543.78;4965768;28;20476;-72
2021/06/13 09:51:38;;;;;;;7.07;2.30;;;;;;;16.92;45.81;101544.50;4964710;28;20039;-72
2021/06/13 09:54:08;;;;;;;6.55;2.25;;;;;;;17.06;45.78;101553.16;4967109;28;20108;-72
2021/06/13 09:56:41;;;;;;;7.75;2.00;;;;;;;16.96;45.92;101570.22;4963941;28;20046;-71
2021/06/13 09:59:12;;;;;;;6.82;2.67;;;;;;;16.71;46.12;101568.81;4965481;28;20100;-71
2021/06/13 10:01:40;;;;;;;8.20;2.63;;;;;;;16.41;46.97;101565.69;4966380;28;20058;-72
2021/06/13 10:04:23;;;;;;;5.07;2.15;;;;;;;16.41;47.60;101558.56;4963789;28;20572;-72
2021/06/13 10:06:53;;;;;;;7.53;2.35;;;;;;;16.40;47.13;101561.25;4963643;28;20035;-72
2021/06/13 10:09:21;;;;;;;7.65;2.60;;;;;;;16.60;47.63;101575.16;4964305;28;20039;-72
2021/06/13 10:11:50;;;;;;;10.13;3.80;;;;;;;16.77;46.17;101568.72;4966781;28;20042;-72
2021/06/13 10:14:17;;;;;;;12.50;3.75;;;;;;;16.83;47.16;101571.31;4959991;28;20039;-72
2021/06/13 10:16:52;;;;;;;8.38;2.33;;;;;;;17.17;46.07;101576.13;4966016;28;20034;-72
2021/06/13 10:19:23;;;;;;;5.28;2.60;;;;;;;17.38;44.89;101572.19;4965577;28;20502;-72
2021/06/13 10:21:51;;;;;;;9.10;3.22;;;;;;;17.37;45.61;101571.31;4963581;28;20634;-72
2021/06/13 10:24:29;;;;;;;11.18;3.30;;;;;;;17.39;45.62;101573.94;4959118;28;20050;-71
2021/06/13 10:27:00;;;;;;;8.95;2.60;;;;;;;17.41;45.38;101561.47;4964868;28;20058;-72
2021/06/13 10:29:28;;;;;;;8.52;3.00;;;;;;;17.43;45.67;101568.53;4965976;28;20043;-72
2021/06/13 10:31:57;;;;;;;8.35;3.00;;;;;;;17.28;46.58;101569.69;4942565;29;20036;-72
2021/06/13 10:34:25;;;;;;;7.95;2.47;;;;;;;17.49;45.87;101568.41;4959451;28;20113;-72
2021/06/13 10:36:52;;;;;;;8.65;2.58;;;;;;;17.29;46.07;101574.13;4965420;28;20039;-71
2021/06/13 10:39:29;;;;;;;9.02;2.58;;;;;;;17.29;46.03;101566.13;4964292;28;20106;-72
2021/06/13 10:41:55;;;;;;;9.00;2.38;;;;;;;17.40;45.63;101571.25;4963289;28;20042;-71
2021/06/13 10:44:23;;;;;;;6.35;2.30;;;;;;;17.18;45.68;101580.53;4965685;28;20038;-72
2021/06/13 10:46:54;;;;;;;8.48;2.30;;;;;;;17.19;45.72;101568.97;4959368;28;20039;-71
2021/06/13 10:49:31;;;;;;;6.90;2.45;;;;;;;17.15;45.70;101575.25;4965083;28;20105;-71
2021/06/13 10:52:26;;;;;;;10.45;2.70;;;;;;;17.29;45.93;101575.88;4965568;28;20117;-72
2021/06/13 10:54:52;;;;;;;8.32;2.58;;;;;;;17.52;45.77;101573.69;4946140;28;20079;-71
2021/06/13 10:57:17;;;;;;;6.07;2.22;;;;;;;17.78;44.29;101583.00;4966175;28;20034;-72
2021/06/13 10:59:50;;;;;;;7.20;2.63;;;;;;;18.14;43.83;101564.53;4962296;28;20043;-71
2021/06/13 11:02:19;;;;;;;7.68;2.95;;;;;;;18.50;45.58;101568.19;4964916;28;20191;-72
2021/06/13 11:05:04;;;;;;;8.32;3.00;;;;;;;18.70;42.42;101556.13;4963941;28;20483;-72
2021/06/13 11:07:35;;;;;;;8.48;3.05;;;;;;;18.40;43.72;101556.81;4960190;28;20125;-72
2021/06/13 11:10:10;;;;;;;7.05;2.53;;;;;;;18.04;44.94;101568.28;4964129;28;20067;-72
2021/06/13 11:12:46;;;;;;;8.70;2.40;;;;;;;17.77;45.29;101570.56;4962525;28;20452;-72
2021/06/13 11:15:15;;;;;;;6.50;2.28;;;;;;;17.58;45.77;101575.38;4928499;28;20032;-72
2021/06/13 11:18:00;;;;;;;6.80;2.20;;;;;;;17.54;45.02;101595.03;4963856;28;20031;-72
2021/06/13 11:20:32;;;;;;;6.82;2.33;;;;;;;17.56;45.47;101585.22;4959482;28;20082;-72
2021/06/13 11:23:13;;;;;;;6.22;2.38;;;;;;;17.85;45.28;101583.81;4963793;28;20402;-72
2021/06/13 11:25:40;;;;;;;4.70;2.30;;;;;;;18.00;45.14;101571.91;4958854;28;20442;-72
2021/06/13 11:28:15;;;;;;;5.25;2.63;;;;;;;18.27;43.72;101581.16;4964567;28;20039;-72
2021/06/13 11:30:53;;;;;;;9.60;2.83;;;;;;;18.50;43.89;101573.53;4964301;28;20554;-72